sensor_id;sensor_type;location;lat;lon;timestamp;pressure;altitude;pressure_sealevel;temperature;humidity
68871;BME280;55906;52.278;6.808;2022-07-23T00:00:07;101773.72;;;17.28;68.46
68871;BME280;55906;52.278;6.808;2022-07-23T00:02:34;101779.00;;;17.25;68.92
68871;BME280;55906;52.278;6.808;2022-07-23T00:05:02;101773.63;;;17.22;69.01
68871;BME280;55906;52.278;6.808;2022-07-23T00:07:30;101780.69;;;17.20;69.30
68871;BME280;55906;52.278;6.808;2022-07-23T00:09:56;101775.34;;;17.17;69.08
68871;BME280;55906;52.278;6.808;2022-07-23T00:12:23;101780.66;;;17.17;69.16
68871;BME280;55906;52.278;6.808;2022-07-23T00:14:50;101770.88;;;17.15;69.19
68871;BME280;55906;52.278;6.808;2022-07-23T00:17:16;101770.88;;;17.15;69.30
68871;BME280;55906;52.278;6.808;2022-07-23T00:19:43;101775.28;;;17.14;69.27
68871;BME280;55906;52.278;6.808;2022-07-23T00:22:10;101776.16;;;17.13;69.53
68871;BME280;55906;52.278;6.808;2022-07-23T00:24:38;101768.19;;;17.13;69.37
68871;BME280;55906;52.278;6.808;2022-07-23T00:27:04;101769.06;;;17.12;69.63
68871;BME280;55906;52.278;6.808;2022-07-23T00:29:31;101768.16;;;17.10;69.91
68871;BME280;55906;52.278;6.808;2022-07-23T00:31:58;101770.75;;;17.07;69.56
68871;BME280;55906;52.278;6.808;2022-07-23T00:34:24;101766.25;;;17.02;70.01
68871;BME280;55906;52.278;6.808;2022-07-23T00:36:51;101762.63;;;16.95;70.05
68871;BME280;55906;52.278;6.808;2022-07-23T00:39:19;101762.47;;;16.87;70.24
68871;BME280;55906;52.278;6.808;2022-07-23T00:41:48;101754.44;;;16.83;70.31
68871;BME280;55906;52.278;6.808;2022-07-23T00:44:16;101752.59;;;16.79;70.48
68871;BME280;55906;52.278;6.808;2022-07-23T00:46:46;101757.84;;;16.73;70.97
68871;BME280;55906;52.278;6.808;2022-07-23T00:49:14;101752.41;;;16.65;70.68
68871;BME280;55906;52.278;6.808;2022-07-23T00:51:41;101756.66;;;16.55;71.03
68871;BME280;55906;52.278;6.808;2022-07-23T00:54:08;101761.84;;;16.48;71.42
68871;BME280;55906;52.278;6.808;2022-07-23T00:56:34;101762.59;;;16.41;71.79
68871;BME280;55906;52.278;6.808;2022-07-23T00:59:02;101759.84;;;16.35;71.74
68871;BME280;55906;52.278;6.808;2022-07-23T01:01:29;101744.63;;;16.24;71.63
68871;BME280;55906;52.278;6.808;2022-07-23T01:03:56;101753.47;;;16.23;71.84
68871;BME280;55906;52.278;6.808;2022-07-23T01:06:22;101762.28;;;16.21;71.97
68871;BME280;55906;52.278;6.808;2022-07-23T01:08:49;101759.53;;;16.15;72.20
68871;BME280;55906;52.278;6.808;2022-07-23T01:11:16;101754.13;;;16.10;72.41
68871;BME280;55906;52.278;6.808;2022-07-23T01:13:44;101761.16;;;16.07;72.47
68871;BME280;55906;52.278;6.808;2022-07-23T01:16:12;101746.91;;;16.02;72.78
68871;BME280;55906;52.278;6.808;2022-07-23T01:18:39;101751.19;;;15.95;72.66
68871;BME280;55906;52.278;6.808;2022-07-23T01:21:06;101752.00;;;15.91;72.92
68871;BME280;55906;52.278;6.808;2022-07-23T01:23:34;101747.53;;;15.88;72.91
68871;BME280;55906;52.278;6.808;2022-07-23T01:26:01;101745.66;;;15.81;73.16
68871;BME280;55906;52.278;6.808;2022-07-23T01:28:27;101751.72;;;15.76;73.32
68871;BME280;55906;52.278;6.808;2022-07-23T01:30:54;101750.81;;;15.74;73.34
68871;BME280;55906;52.278;6.808;2022-07-23T01:33:20;101749.78;;;15.67;73.47
68871;BME280;55906;52.278;6.808;2022-07-23T01:35:47;101744.47;;;15.65;73.68
68871;BME280;55906;52.278;6.808;2022-07-23T01:38:14;101747.03;;;15.61;73.77
68871;BME280;55906;52.278;6.808;2022-07-23T01:40:42;101739.81;;;15.57;73.81
68871;BME280;55906;52.278;6.808;2022-07-23T01:43:08;101745.91;;;15.53;73.78
68871;BME280;55906;52.278;6.808;2022-07-23T01:45:35;101732.56;;;15.48;74.16
68871;BME280;55906;52.278;6.808;2022-07-23T01:48:01;101745.75;;;15.45;73.95
68871;BME280;55906;52.278;6.808;2022-07-23T01:50:28;101740.38;;;15.41;74.42
68871;BME280;55906;52.278;6.808;2022-07-23T01:52:56;101732.34;;;15.37;74.48
68871;BME280;55906;52.278;6.808;2022-07-23T01:58:46;101734.78;;;15.27;75.11
68871;BME280;55906;52.278;6.808;2022-07-23T02:01:12;101736.50;;;15.25;74.91
68871;BME280;55906;52.278;6.808;2022-07-23T02:03:39;101740.84;;;15.21;74.97
68871;BME280;55906;52.278;6.808;2022-07-23T02:06:06;101734.56;;;15.16;75.00
68871;BME280;55906;52.278;6.808;2022-07-23T02:08:32;101735.44;;;15.15;75.26
68871;BME280;55906;52.278;6.808;2022-07-23T02:10:59;101730.06;;;15.12;75.40
68871;BME280;55906;52.278;6.808;2022-07-23T02:13:25;101722.97;;;15.11;75.51
68871;BME280;55906;52.278;6.808;2022-07-23T02:15:55;101724.72;;;15.11;75.52
68871;BME280;55906;52.278;6.808;2022-07-23T02:18:21;101727.34;;;15.09;75.46
68871;BME280;55906;52.278;6.808;2022-07-23T02:20:48;101727.28;;;15.06;75.76
68871;BME280;55906;52.278;6.808;2022-07-23T02:23:15;101721.91;;;15.03;75.71
68871;BME280;55906;52.278;6.808;2022-07-23T02:25:41;101722.78;;;15.02;75.82
68871;BME280;55906;52.278;6.808;2022-07-23T02:28:08;101724.50;;;15.00;76.04
68871;BME280;55906;52.278;6.808;2022-07-23T02:30:34;101724.47;;;14.98;76.05
68871;BME280;55906;52.278;6.808;2022-07-23T02:33:04;101727.09;;;14.97;76.10
68871;BME280;55906;52.278;6.808;2022-07-23T02:35:31;101723.53;;;14.96;76.21
68871;BME280;55906;52.278;6.808;2022-07-23T02:37:57;101720.81;;;14.93;76.13
68871;BME280;55906;52.278;6.808;2022-07-23T02:40:24;101718.16;;;14.92;76.31
68871;BME280;55906;52.278;6.808;2022-07-23T02:42:50;101715.47;;;14.90;76.25
68871;BME280;55906;52.278;6.808;2022-07-23T02:45:17;101717.25;;;14.91;76.44
68871;BME280;55906;52.278;6.808;2022-07-23T02:47:43;101721.66;;;14.91;76.32
68871;BME280;55906;52.278;6.808;2022-07-23T02:50:11;101718.06;;;14.89;76.44
68871;BME280;55906;52.278;6.808;2022-07-23T02:52:38;101726.00;;;14.87;76.43
68871;BME280;55906;52.278;6.808;2022-07-23T02:55:05;101728.59;;;14.86;76.53
68871;BME280;55906;52.278;6.808;2022-07-23T02:57:32;101735.63;;;14.84;76.28
68871;BME280;55906;52.278;6.808;2022-07-23T02:59:59;101737.34;;;14.82;76.54
68871;BME280;55906;52.278;6.808;2022-07-23T03:02:25;101735.56;;;14.81;76.67
68871;BME280;55906;52.278;6.808;2022-07-23T03:04:52;101739.94;;;14.79;76.57
68871;BME280;55906;52.278;6.808;2022-07-23T03:07:20;101746.94;;;14.77;76.50
68871;BME280;55906;52.278;6.808;2022-07-23T03:09:47;101735.34;;;14.71;76.65
68871;BME280;55906;52.278;6.808;2022-07-23T03:12:13;101739.72;;;14.69;76.69
68871;BME280;55906;52.278;6.808;2022-07-23T03:14:41;101740.56;;;14.68;76.95
68871;BME280;55906;52.278;6.808;2022-07-23T03:17:07;101742.28;;;14.66;76.92
68871;BME280;55906;52.278;6.808;2022-07-23T03:19:34;101736.94;;;14.63;77.12
68871;BME280;55906;52.278;6.808;2022-07-23T03:22:00;101746.59;;;14.61;77.21
68871;BME280;55906;52.278;6.808;2022-07-23T03:24:28;101742.16;;;14.60;77.13
68871;BME280;55906;52.278;6.808;2022-07-23T03:27:09;101741.22;;;14.58;77.02
68871;BME280;55906;52.278;6.808;2022-07-23T03:29:35;101734.09;;;14.56;77.15
68871;BME280;55906;52.278;6.808;2022-07-23T03:32:02;101742.88;;;14.53;77.12
68871;BME280;55906;52.278;6.808;2022-07-23T03:34:29;101749.06;;;14.54;77.24
68871;BME280;55906;52.278;6.808;2022-07-23T03:36:55;101743.72;;;14.52;77.31
68871;BME280;55906;52.278;6.808;2022-07-23T03:39:22;101750.75;;;14.50;77.30
68871;BME280;55906;52.278;6.808;2022-07-23T03:41:50;101742.75;;;14.49;77.39
68871;BME280;55906;52.278;6.808;2022-07-23T03:44:17;101740.97;;;14.48;77.36
68871;BME280;55906;52.278;6.808;2022-07-23T03:46:43;101734.75;;;14.46;77.32
68871;BME280;55906;52.278;6.808;2022-07-23T03:49:10;101739.16;;;14.45;77.26
68871;BME280;55906;52.278;6.808;2022-07-23T03:51:36;101737.34;;;14.44;77.59
68871;BME280;55906;52.278;6.808;2022-07-23T03:54:03;101744.41;;;14.44;77.44
68871;BME280;55906;52.278;6.808;2022-07-23T03:56:30;101736.41;;;14.42;77.46
68871;BME280;55906;52.278;6.808;2022-07-23T03:58:58;101739.00;;;14.40;77.57
68871;BME280;55906;52.278;6.808;2022-07-23T04:01:25;101747.84;;;14.41;77.37
68871;BME280;55906;52.278;6.808;2022-07-23T04:03:51;101741.59;;;14.39;77.66
68871;BME280;55906;52.278;6.808;2022-07-23T04:06:21;101753.03;;;14.36;77.46
68871;BME280;55906;52.278;6.808;2022-07-23T04:08:47;101753.88;;;14.35;77.56
68871;BME280;55906;52.278;6.808;2022-07-23T04:11:14;101759.22;;;14.37;77.63
68871;BME280;55906;52.278;6.808;2022-07-23T04:13:41;101750.28;;;14.33;77.82
68871;BME280;55906;52.278;6.808;2022-07-23T04:16:09;101750.34;;;14.35;77.80
68871;BME280;55906;52.278;6.808;2022-07-23T04:18:38;101752.94;;;14.33;77.85
68871;BME280;55906;52.278;6.808;2022-07-23T04:21:05;101753.75;;;14.31;77.99
68871;BME280;55906;52.278;6.808;2022-07-23T04:23:31;101754.66;;;14.31;78.14
68871;BME280;55906;52.278;6.808;2022-07-23T04:25:58;101752.00;;;14.31;78.17
68871;BME280;55906;52.278;6.808;2022-07-23T04:28:24;101759.09;;;14.32;78.28
68871;BME280;55906;52.278;6.808;2022-07-23T04:30:51;101760.88;;;14.33;78.30
68871;BME280;55906;52.278;6.808;2022-07-23T04:33:19;101755.66;;;14.36;78.35
68871;BME280;55906;52.278;6.808;2022-07-23T04:35:46;101761.91;;;14.38;78.28
68871;BME280;55906;52.278;6.808;2022-07-23T04:38:12;101762.81;;;14.40;78.38
68871;BME280;55906;52.278;6.808;2022-07-23T04:40:39;101756.78;;;14.45;78.10
68871;BME280;55906;52.278;6.808;2022-07-23T04:43:06;101760.41;;;14.48;78.11
68871;BME280;55906;52.278;6.808;2022-07-23T04:45:32;101750.81;;;14.53;77.90
68871;BME280;55906;52.278;6.808;2022-07-23T04:47:59;101757.06;;;14.57;77.90
68871;BME280;55906;52.278;6.808;2022-07-23T04:50:27;101750.09;;;14.60;77.96
68871;BME280;55906;52.278;6.808;2022-07-23T04:52:54;101760.81;;;14.65;77.74
68871;BME280;55906;52.278;6.808;2022-07-23T04:55:21;101765.31;;;14.69;77.91
68871;BME280;55906;52.278;6.808;2022-07-23T04:57:47;101770.72;;;14.73;78.00
68871;BME280;55906;52.278;6.808;2022-07-23T05:00:14;101763.75;;;14.79;77.69
68871;BME280;55906;52.278;6.808;2022-07-23T05:02:41;101767.41;;;14.84;77.84
68871;BME280;55906;52.278;6.808;2022-07-23T05:05:08;101756.81;;;14.84;77.76
68871;BME280;55906;52.278;6.808;2022-07-23T05:07:36;101761.41;;;14.91;77.62
68871;BME280;55906;52.278;6.808;2022-07-23T05:10:03;101752.63;;;14.93;77.63
68871;BME280;55906;52.278;6.808;2022-07-23T05:12:30;101753.63;;;14.98;77.54
68871;BME280;55906;52.278;6.808;2022-07-23T05:14:58;101746.63;;;15.02;77.52
68871;BME280;55906;52.278;6.808;2022-07-23T05:17:24;101751.19;;;15.09;77.35
68871;BME280;55906;52.278;6.808;2022-07-23T05:19:51;101757.50;;;15.14;77.39
68871;BME280;55906;52.278;6.808;2022-07-23T05:22:18;101765.56;;;15.20;77.15
68871;BME280;55906;52.278;6.808;2022-07-23T05:24:46;101771.00;;;15.26;76.85
68871;BME280;55906;52.278;6.808;2022-07-23T05:27:12;101772.88;;;15.30;76.99
68871;BME280;55906;52.278;6.808;2022-07-23T05:29:39;101774.72;;;15.34;76.59
68871;BME280;55906;52.278;6.808;2022-07-23T05:32:06;101782.72;;;15.37;76.66
68871;BME280;55906;52.278;6.808;2022-07-23T05:34:35;101780.22;;;15.44;76.24
68871;BME280;55906;52.278;6.808;2022-07-23T05:37:02;101775.91;;;15.49;76.47
68871;BME280;55906;52.278;6.808;2022-07-23T05:39:28;101781.31;;;15.55;76.26
68871;BME280;55906;52.278;6.808;2022-07-23T05:41:56;101780.69;;;15.63;75.95
68871;BME280;55906;52.278;6.808;2022-07-23T05:44:23;101785.25;;;15.71;75.71
68871;BME280;55906;52.278;6.808;2022-07-23T05:46:49;101790.72;;;15.80;75.38
68871;BME280;55906;52.278;6.808;2022-07-23T05:49:16;101788.22;;;15.87;75.12
68871;BME280;55906;52.278;6.808;2022-07-23T05:51:42;101793.59;;;15.90;74.91
68871;BME280;55906;52.278;6.808;2022-07-23T05:54:09;101798.13;;;15.97;75.07
68871;BME280;55906;52.278;6.808;2022-07-23T05:56:36;101807.13;;;16.06;75.13
68871;BME280;55906;52.278;6.808;2022-07-23T05:59:04;101807.31;;;16.15;74.55
68871;BME280;55906;52.278;6.808;2022-07-23T06:01:31;101802.16;;;16.24;74.38
68871;BME280;55906;52.278;6.808;2022-07-23T06:03:57;101811.22;;;16.35;73.95
68871;BME280;55906;52.278;6.808;2022-07-23T06:06:24;101806.03;;;16.43;73.28
68871;BME280;55906;52.278;6.808;2022-07-23T06:08:50;101814.13;;;16.50;73.25
68871;BME280;55906;52.278;6.808;2022-07-23T06:11:17;101808.94;;;16.58;73.13
68871;BME280;55906;52.278;6.808;2022-07-23T06:13:44;101818.84;;;16.67;72.74
68871;BME280;55906;52.278;6.808;2022-07-23T06:16:12;101819.03;;;16.77;72.59
68871;BME280;55906;52.278;6.808;2022-07-23T06:18:38;101819.09;;;16.82;72.16
68871;BME280;55906;52.278;6.808;2022-07-23T06:21:05;101817.41;;;16.87;71.77
68871;BME280;55906;52.278;6.808;2022-07-23T06:23:31;101824.63;;;16.94;72.10
68871;BME280;55906;52.278;6.808;2022-07-23T06:25:58;101818.50;;;16.98;71.69
68871;BME280;55906;52.278;6.808;2022-07-23T06:28:25;101822.19;;;17.08;71.35
68871;BME280;55906;52.278;6.808;2022-07-23T06:30:51;101819.63;;;17.15;71.60
68871;BME280;55906;52.278;6.808;2022-07-23T06:33:20;101826.81;;;17.22;70.59
68871;BME280;55906;52.278;6.808;2022-07-23T06:35:47;101818.09;;;17.33;70.74
68871;BME280;55906;52.278;6.808;2022-07-23T06:38:13;101821.78;;;17.44;70.33
68871;BME280;55906;52.278;6.808;2022-07-23T06:40:40;101819.19;;;17.48;70.61
68871;BME280;55906;52.278;6.808;2022-07-23T06:43:06;101818.44;;;17.60;70.11
68871;BME280;55906;52.278;6.808;2022-07-23T06:45:33;101817.63;;;17.66;69.91
68871;BME280;55906;52.278;6.808;2022-07-23T06:48:00;101818.63;;;17.72;69.50
68871;BME280;55906;52.278;6.808;2022-07-23T06:50:29;101821.34;;;17.77;69.58
68871;BME280;55906;52.278;6.808;2022-07-23T06:52:55;101825.88;;;17.85;69.36
68871;BME280;55906;52.278;6.808;2022-07-23T06:55:22;101823.31;;;17.93;68.26
68871;BME280;55906;52.278;6.808;2022-07-23T06:57:49;101826.06;;;18.02;68.02
68871;BME280;55906;52.278;6.808;2022-07-23T07:00:15;101833.19;;;18.05;66.91
68871;BME280;55906;52.278;6.808;2022-07-23T07:02:42;101835.94;;;18.12;66.98
68871;BME280;55906;52.278;6.808;2022-07-23T07:05:08;101830.63;;;18.15;67.09
68871;BME280;55906;52.278;6.808;2022-07-23T07:07:36;101834.38;;;18.31;66.74
68871;BME280;55906;52.278;6.808;2022-07-23T07:10:04;101832.66;;;18.35;66.51
68871;BME280;55906;52.278;6.808;2022-07-23T07:12:31;101827.41;;;18.44;66.26
68871;BME280;55906;52.278;6.808;2022-07-23T07:14:58;101834.66;;;18.60;65.92
68871;BME280;55906;52.278;6.808;2022-07-23T07:17:24;101833.84;;;18.66;65.22
68871;BME280;55906;52.278;6.808;2022-07-23T07:19:51;101838.38;;;18.79;65.06
68871;BME280;55906;52.278;6.808;2022-07-23T07:22:17;101826.88;;;18.86;64.65
68871;BME280;55906;52.278;6.808;2022-07-23T07:24:45;101830.53;;;18.97;63.50
68871;BME280;55906;52.278;6.808;2022-07-23T07:27:12;101832.38;;;19.10;63.28
68871;BME280;55906;52.278;6.808;2022-07-23T07:29:39;101834.25;;;19.27;63.01
68871;BME280;55906;52.278;6.808;2022-07-23T07:32:06;101832.53;;;19.39;62.40
68871;BME280;55906;52.278;6.808;2022-07-23T07:34:33;101832.59;;;19.50;61.55
68871;BME280;55906;52.278;6.808;2022-07-23T07:36:59;101836.31;;;19.67;60.77
68871;BME280;55906;52.278;6.808;2022-07-23T07:39:26;101838.09;;;19.74;59.39
68871;BME280;55906;52.278;6.808;2022-07-23T07:41:54;101842.56;;;19.80;59.49
68871;BME280;55906;52.278;6.808;2022-07-23T07:44:21;101847.06;;;19.89;60.30
68871;BME280;55906;52.278;6.808;2022-07-23T07:46:47;101845.34;;;20.12;58.59
68871;BME280;55906;52.278;6.808;2022-07-23T07:49:14;101839.16;;;20.33;58.31
68871;BME280;55906;52.278;6.808;2022-07-23T07:51:42;101843.66;;;20.51;58.22
68871;BME280;55906;52.278;6.808;2022-07-23T07:54:09;101838.34;;;20.83;55.18
68871;BME280;55906;52.278;6.808;2022-07-23T07:56:36;101841.00;;;21.01;56.51
68871;BME280;55906;52.278;6.808;2022-07-23T07:59:04;101843.63;;;21.21;55.48
68871;BME280;55906;52.278;6.808;2022-07-23T08:01:31;101849.91;;;21.07;54.69
68871;BME280;55906;52.278;6.808;2022-07-23T08:03:57;101850.78;;;21.09;54.59
68871;BME280;55906;52.278;6.808;2022-07-23T08:06:24;101849.91;;;21.00;55.25
68871;BME280;55906;52.278;6.808;2022-07-23T08:08:51;101852.59;;;20.86;55.23
68871;BME280;55906;52.278;6.808;2022-07-23T08:11:17;101861.50;;;20.91;55.03
68871;BME280;55906;52.278;6.808;2022-07-23T08:13:44;101857.03;;;21.15;55.38
68871;BME280;55906;52.278;6.808;2022-07-23T08:16:12;101861.47;;;21.14;54.36
68871;BME280;55906;52.278;6.808;2022-07-23T08:18:39;101860.59;;;21.24;54.78
68871;BME280;55906;52.278;6.808;2022-07-23T08:21:05;101857.00;;;21.21;54.67
68871;BME280;55906;52.278;6.808;2022-07-23T08:23:32;101858.81;;;21.11;54.58
68871;BME280;55906;52.278;6.808;2022-07-23T08:25:59;101848.09;;;21.34;54.29
68871;BME280;55906;52.278;6.808;2022-07-23T08:28:26;101854.25;;;21.57;53.96
68871;BME280;55906;52.278;6.808;2022-07-23T08:30:53;101862.22;;;21.77;53.22
68871;BME280;55906;52.278;6.808;2022-07-23T08:33:21;101865.69;;;21.94;51.27
68871;BME280;55906;52.278;6.808;2022-07-23T08:35:49;101871.09;;;21.87;51.59
68871;BME280;55906;52.278;6.808;2022-07-23T08:38:19;101865.69;;;22.05;51.83
68871;BME280;55906;52.278;6.808;2022-07-23T08:40:48;101867.41;;;22.20;51.50
68871;BME280;55906;52.278;6.808;2022-07-23T08:43:17;101862.03;;;22.24;51.75
68871;BME280;55906;52.278;6.808;2022-07-23T08:45:45;101860.88;;;22.59;51.26
68871;BME280;55906;52.278;6.808;2022-07-23T08:48:14;101867.06;;;22.67;51.04
68871;BME280;55906;52.278;6.808;2022-07-23T08:50:44;101866.25;;;22.59;49.96
68871;BME280;55906;52.278;6.808;2022-07-23T08:53:11;101873.25;;;22.83;49.93
68871;BME280;55906;52.278;6.808;2022-07-23T08:55:38;101873.22;;;22.84;49.46
68871;BME280;55906;52.278;6.808;2022-07-23T08:58:04;101867.00;;;22.75;49.37
68871;BME280;55906;52.278;6.808;2022-07-23T09:00:32;101872.38;;;22.75;48.42
68871;BME280;55906;52.278;6.808;2022-07-23T09:02:58;101876.75;;;22.91;48.62
68871;BME280;55906;52.278;6.808;2022-07-23T09:05:25;101886.53;;;22.96;46.91
68871;BME280;55906;52.278;6.808;2022-07-23T09:08:07;101876.50;;;23.17;46.52
68871;BME280;55906;52.278;6.808;2022-07-23T09:10:45;101880.88;;;23.27;46.21
68871;BME280;55906;52.278;6.808;2022-07-23T09:13:31;101875.38;;;23.38;46.54
68871;BME280;55906;52.278;6.808;2022-07-23T09:16:00;101870.81;;;23.50;46.67
68871;BME280;55906;52.278;6.808;2022-07-23T09:18:29;101874.50;;;23.36;46.96
68871;BME280;55906;52.278;6.808;2022-07-23T09:21:06;101881.88;;;23.17;45.28
68871;BME280;55906;52.278;6.808;2022-07-23T09:23:42;101873.63;;;23.35;46.17
68871;BME280;55906;52.278;6.808;2022-07-23T09:26:33;101881.75;;;24.09;44.80
68871;BME280;55906;52.278;6.808;2022-07-23T09:29:08;101881.47;;;24.88;43.98
68871;BME280;55906;52.278;6.808;2022-07-23T09:31:44;101881.59;;;25.32;45.43
68871;BME280;55906;52.278;6.808;2022-07-23T09:34:13;101877.94;;;25.82;41.87
68871;BME280;55906;52.278;6.808;2022-07-23T09:36:41;101866.25;;;26.23;40.92
68871;BME280;55906;52.278;6.808;2022-07-23T09:39:10;101870.84;;;26.94;41.23
68871;BME280;55906;52.278;6.808;2022-07-23T09:41:39;101866.56;;;27.21;40.99
68871;BME280;55906;52.278;6.808;2022-07-23T09:44:08;101864.72;;;27.21;41.41
68871;BME280;55906;52.278;6.808;2022-07-23T09:46:36;101866.03;;;27.73;41.46
68871;BME280;55906;52.278;6.808;2022-07-23T09:49:12;101860.06;;;27.91;38.64
68871;BME280;55906;52.278;6.808;2022-07-23T09:51:44;101860.09;;;27.59;38.18
68871;BME280;55906;52.278;6.808;2022-07-23T09:54:26;101864.81;;;28.13;37.58
68871;BME280;55906;52.278;6.808;2022-07-23T09:56:55;101861.41;;;28.35;38.22
68871;BME280;55906;52.278;6.808;2022-07-23T09:59:23;101868.31;;;28.46;39.31
68871;BME280;55906;52.278;6.808;2022-07-23T10:01:52;101866.53;;;28.73;38.52
68871;BME280;55906;52.278;6.808;2022-07-23T10:04:20;101862.69;;;28.80;37.25
68871;BME280;55906;52.278;6.808;2022-07-23T10:06:48;101862.25;;;29.45;37.59
68871;BME280;55906;52.278;6.808;2022-07-23T10:09:18;101861.41;;;29.91;36.73
68871;BME280;55906;52.278;6.808;2022-07-23T10:11:50;101859.66;;;29.65;35.82
68871;BME280;55906;52.278;6.808;2022-07-23T10:14:18;101856.19;;;30.10;36.87
68871;BME280;55906;52.278;6.808;2022-07-23T10:16:45;101854.53;;;29.81;35.33
68871;BME280;55906;52.278;6.808;2022-07-23T10:19:12;101853.59;;;29.58;36.46
68871;BME280;55906;52.278;6.808;2022-07-23T10:21:41;101852.97;;;29.99;35.57
68871;BME280;55906;52.278;6.808;2022-07-23T10:24:18;101854.63;;;30.26;35.35
68871;BME280;55906;52.278;6.808;2022-07-23T10:26:55;101863.13;;;29.93;33.05
68871;BME280;55906;52.278;6.808;2022-07-23T10:29:36;101865.38;;;29.57;32.38
68871;BME280;55906;52.278;6.808;2022-07-23T10:32:17;101863.50;;;29.59;31.41
68871;BME280;55906;52.278;6.808;2022-07-23T10:34:55;101856.06;;;29.65;33.17
68871;BME280;55906;52.278;6.808;2022-07-23T10:37:30;101864.16;;;29.89;32.43
68871;BME280;55906;52.278;6.808;2022-07-23T10:40:15;101857.50;;;30.21;31.70
68871;BME280;55906;52.278;6.808;2022-07-23T10:42:44;101850.88;;;30.50;32.34
68871;BME280;55906;52.278;6.808;2022-07-23T10:45:26;101852.53;;;30.33;32.08
68871;BME280;55906;52.278;6.808;2022-07-23T10:47:54;101846.72;;;30.42;32.99
68871;BME280;55906;52.278;6.808;2022-07-23T10:50:23;101836.31;;;30.95;32.60
68871;BME280;55906;52.278;6.808;2022-07-23T10:53:15;101839.72;;;31.00;29.93
68871;BME280;55906;52.278;6.808;2022-07-23T10:55:48;101845.47;;;31.14;31.90
68871;BME280;55906;52.278;6.808;2022-07-23T10:58:47;101851.06;;;31.32;30.31
68871;BME280;55906;52.278;6.808;2022-07-23T11:01:34;101848.06;;;31.38;30.43
68871;BME280;55906;52.278;6.808;2022-07-23T11:04:02;101849.53;;;31.65;32.05
68871;BME280;55906;52.278;6.808;2022-07-23T11:07:07;101847.88;;;31.81;29.57
68871;BME280;55906;52.278;6.808;2022-07-23T11:09:41;101846.47;;;31.73;29.01
68871;BME280;55906;52.278;6.808;2022-07-23T11:12:36;101854.34;;;31.40;29.80
68871;BME280;55906;52.278;6.808;2022-07-23T11:15:07;101851.31;;;31.46;29.65
68871;BME280;55906;52.278;6.808;2022-07-23T11:17:35;101856.06;;;31.81;30.95
68871;BME280;55906;52.278;6.808;2022-07-23T11:20:29;101850.16;;;31.51;28.50
68871;BME280;55906;52.278;6.808;2022-07-23T11:22:57;101847.50;;;31.70;29.92
68871;BME280;55906;52.278;6.808;2022-07-23T11:25:34;101841.94;;;31.92;30.26
68871;BME280;55906;52.278;6.808;2022-07-23T11:28:10;101848.25;;;31.93;29.46
68871;BME280;55906;52.278;6.808;2022-07-23T11:30:40;101848.84;;;31.99;30.35
68871;BME280;55906;52.278;6.808;2022-07-23T11:33:21;101842.66;;;32.52;28.93
68871;BME280;55906;52.278;6.808;2022-07-23T11:35:59;101840.41;;;32.96;28.79
68871;BME280;55906;52.278;6.808;2022-07-23T11:38:27;101829.00;;;33.05;27.81
68871;BME280;55906;52.278;6.808;2022-07-23T11:40:57;101842.66;;;32.88;28.73
68871;BME280;55906;52.278;6.808;2022-07-23T11:43:24;101828.84;;;33.26;28.25
68871;BME280;55906;52.278;6.808;2022-07-23T11:45:53;101835.84;;;33.64;28.69
68871;BME280;55906;52.278;6.808;2022-07-23T11:48:22;101837.22;;;33.56;28.20
68871;BME280;55906;52.278;6.808;2022-07-23T11:50:50;101836.91;;;33.78;27.52
68871;BME280;55906;52.278;6.808;2022-07-23T11:53:22;101837.91;;;34.10;27.47
68871;BME280;55906;52.278;6.808;2022-07-23T11:55:48;101846.13;;;33.59;27.38
68871;BME280;55906;52.278;6.808;2022-07-23T11:58:15;101837.47;;;34.01;28.20
68871;BME280;55906;52.278;6.808;2022-07-23T12:00:41;101831.38;;;34.28;27.84
68871;BME280;55906;52.278;6.808;2022-07-23T12:03:09;101827.31;;;33.88;26.48
68871;BME280;55906;52.278;6.808;2022-07-23T12:05:38;101829.00;;;33.73;27.74
68871;BME280;55906;52.278;6.808;2022-07-23T12:08:06;101831.91;;;34.19;27.89
68871;BME280;55906;52.278;6.808;2022-07-23T12:10:35;101833.50;;;34.07;27.17
68871;BME280;55906;52.278;6.808;2022-07-23T12:13:04;101838.94;;;34.23;27.31
68871;BME280;55906;52.278;6.808;2022-07-23T12:15:33;101839.03;;;34.53;25.64
68871;BME280;55906;52.278;6.808;2022-07-23T12:18:03;101830.63;;;34.72;27.45
68871;BME280;55906;52.278;6.808;2022-07-23T12:20:33;101827.94;;;34.24;27.50
68871;BME280;55906;52.278;6.808;2022-07-23T12:23:02;101831.88;;;34.66;26.94
68871;BME280;55906;52.278;6.808;2022-07-23T12:25:30;101841.78;;;34.98;26.27
68871;BME280;55906;52.278;6.808;2022-07-23T12:28:02;101834.94;;;36.62;24.42
68871;BME280;55906;52.278;6.808;2022-07-23T12:30:31;101823.25;;;37.25;24.21
68871;BME280;55906;52.278;6.808;2022-07-23T12:32:59;101822.34;;;37.63;23.50
68871;BME280;55906;52.278;6.808;2022-07-23T12:35:35;101816.72;;;38.39;22.14
68871;BME280;55906;52.278;6.808;2022-07-23T12:38:04;101817.88;;;38.60;22.47
68871;BME280;55906;52.278;6.808;2022-07-23T12:40:34;101821.41;;;38.50;22.71
68871;BME280;55906;52.278;6.808;2022-07-23T12:43:03;101811.09;;;38.88;21.95
68871;BME280;55906;52.278;6.808;2022-07-23T12:45:42;101812.88;;;39.47;19.84
68871;BME280;55906;52.278;6.808;2022-07-23T12:48:18;101817.88;;;39.42;21.56
68871;BME280;55906;52.278;6.808;2022-07-23T12:50:51;101820.63;;;39.42;21.45
68871;BME280;55906;52.278;6.808;2022-07-23T12:53:19;101823.22;;;38.86;21.47
68871;BME280;55906;52.278;6.808;2022-07-23T12:55:47;101826.63;;;39.00;22.14
68871;BME280;55906;52.278;6.808;2022-07-23T12:58:15;101829.72;;;38.37;22.03
68871;BME280;55906;52.278;6.808;2022-07-23T13:00:51;101829.19;;;38.32;21.61